sensor_id;sensor_type;location;lat;lon;timestamp;temperature;humidity
75091;DHT22;63674;48.048;8.306;2022-12-28T00:00:01;-0.80;99.90
75091;DHT22;63674;48.048;8.306;2022-12-28T00:02:29;-0.80;99.90
75091;DHT22;63674;48.048;8.306;2022-12-28T00:04:58;-0.80;99.90
75091;DHT22;63674;48.048;8.306;2022-12-28T00:07:26;-0.80;99.90
75091;DHT22;63674;48.048;8.306;2022-12-28T00:09:55;-1.10;99.90
75091;DHT22;63674;48.048;8.306;2022-12-28T00:12:25;-1.20;99.90
75091;DHT22;63674;48.048;8.306;2022-12-28T00:14:53;-1.20;99.90
75091;DHT22;63674;48.048;8.306;2022-12-28T00:17:22;-1.20;99.90
75091;DHT22;63674;48.048;8.306;2022-12-28T00:19:50;-1.10;99.90
75091;DHT22;63674;48.048;8.306;2022-12-28T00:22:19;-1.00;99.90
75091;DHT22;63674;48.048;8.306;2022-12-28T00:24:47;-1.00;99.90
75091;DHT22;63674;48.048;8.306;2022-12-28T00:27:16;-0.90;99.90
75091;DHT22;63674;48.048;8.306;2022-12-28T00:29:45;-0.90;99.90
75091;DHT22;63674;48.048;8.306;2022-12-28T00:32:15;-0.80;99.90
75091;DHT22;63674;48.048;8.306;2022-12-28T00:37:12;-0.80;99.90
75091;DHT22;63674;48.048;8.306;2022-12-28T00:39:41;-0.80;99.90
75091;DHT22;63674;48.048;8.306;2022-12-28T00:42:10;-0.80;99.90
75091;DHT22;63674;48.048;8.306;2022-12-28T00:44:39;-0.80;99.90
75091;DHT22;63674;48.048;8.306;2022-12-28T00:47:09;-0.80;99.90
75091;DHT22;63674;48.048;8.306;2022-12-28T00:49:38;-0.80;99.90
75091;DHT22;63674;48.048;8.306;2022-12-28T00:52:06;-0.90;99.90
75091;DHT22;63674;48.048;8.306;2022-12-28T00:54:35;-0.90;99.90
75091;DHT22;63674;48.048;8.306;2022-12-28T00:57:03;-0.90;99.90
75091;DHT22;63674;48.048;8.306;2022-12-28T00:59:32;-0.80;99.90
75091;DHT22;63674;48.048;8.306;2022-12-28T01:02:00;-0.70;99.90
75091;DHT22;63674;48.048;8.306;2022-12-28T01:04:30;-0.80;99.90
75091;DHT22;63674;48.048;8.306;2022-12-28T01:06:59;-0.60;99.90
75091;DHT22;63674;48.048;8.306;2022-12-28T01:09:28;-0.60;99.90
75091;DHT22;63674;48.048;8.306;2022-12-28T01:11:56;-0.60;99.90
75091;DHT22;63674;48.048;8.306;2022-12-28T01:14:25;-0.60;99.90
75091;DHT22;63674;48.048;8.306;2022-12-28T01:16:53;-0.60;99.90
75091;DHT22;63674;48.048;8.306;2022-12-28T01:19:23;-0.60;99.90
75091;DHT22;63674;48.048;8.306;2022-12-28T01:21:53;-0.60;99.90
75091;DHT22;63674;48.048;8.306;2022-12-28T01:24:23;-0.60;99.90
75091;DHT22;63674;48.048;8.306;2022-12-28T01:26:52;-0.70;99.90
75091;DHT22;63674;48.048;8.306;2022-12-28T01:29:20;-0.70;99.90
75091;DHT22;63674;48.048;8.306;2022-12-28T01:31:49;-0.60;99.90
75091;DHT22;63674;48.048;8.306;2022-12-28T01:34:17;-0.60;99.90
75091;DHT22;63674;48.048;8.306;2022-12-28T01:36:46;-0.60;99.90
75091;DHT22;63674;48.048;8.306;2022-12-28T01:39:16;-0.60;99.90
75091;DHT22;63674;48.048;8.306;2022-12-28T01:41:44;-0.50;99.90
75091;DHT22;63674;48.048;8.306;2022-12-28T01:44:47;-0.40;99.90
75091;DHT22;63674;48.048;8.306;2022-12-28T01:47:20;-0.30;99.90
75091;DHT22;63674;48.048;8.306;2022-12-28T01:50:00;-0.20;99.90
75091;DHT22;63674;48.048;8.306;2022-12-28T01:52:33;-0.20;99.90
75091;DHT22;63674;48.048;8.306;2022-12-28T01:55:08;-0.10;99.90
75091;DHT22;63674;48.048;8.306;2022-12-28T01:57:40;-0.10;99.90
75091;DHT22;63674;48.048;8.306;2022-12-28T02:00:12;0.00;99.90
75091;DHT22;63674;48.048;8.306;2022-12-28T02:02:45;0.00;99.90
75091;DHT22;63674;48.048;8.306;2022-12-28T02:05:16;0.00;99.90
75091;DHT22;63674;48.048;8.306;2022-12-28T02:07:50;0.10;99.90
75091;DHT22;63674;48.048;8.306;2022-12-28T02:10:23;0.00;99.90
75091;DHT22;63674;48.048;8.306;2022-12-28T02:13:12;0.10;99.90
75091;DHT22;63674;48.048;8.306;2022-12-28T02:15:42;0.10;99.90
75091;DHT22;63674;48.048;8.306;2022-12-28T02:18:11;0.20;99.90
75091;DHT22;63674;48.048;8.306;2022-12-28T02:20:50;0.20;99.90
75091;DHT22;63674;48.048;8.306;2022-12-28T02:23:37;0.20;99.90
75091;DHT22;63674;48.048;8.306;2022-12-28T02:26:35;0.20;99.90
75091;DHT22;63674;48.048;8.306;2022-12-28T02:29:38;0.30;99.90
75091;DHT22;63674;48.048;8.306;2022-12-28T02:32:44;0.20;99.90
75091;DHT22;63674;48.048;8.306;2022-12-28T02:35:20;0.10;99.90
75091;DHT22;63674;48.048;8.306;2022-12-28T02:37:57;-0.10;99.90
75091;DHT22;63674;48.048;8.306;2022-12-28T02:40:31;-0.20;99.90
75091;DHT22;63674;48.048;8.306;2022-12-28T02:43:02;-0.10;99.90
75091;DHT22;63674;48.048;8.306;2022-12-28T02:45:35;-0.10;99.90
75091;DHT22;63674;48.048;8.306;2022-12-28T02:48:23;0.00;99.90
75091;DHT22;63674;48.048;8.306;2022-12-28T02:51:34;0.10;99.90
75091;DHT22;63674;48.048;8.306;2022-12-28T02:54:28;0.00;99.90
75091;DHT22;63674;48.048;8.306;2022-12-28T02:57:36;0.00;99.90
75091;DHT22;63674;48.048;8.306;2022-12-28T03:00:16;0.10;99.90
75091;DHT22;63674;48.048;8.306;2022-12-28T03:02:59;0.10;99.90
75091;DHT22;63674;48.048;8.306;2022-12-28T03:05:46;0.00;99.90
75091;DHT22;63674;48.048;8.306;2022-12-28T03:08:50;0.00;99.90
75091;DHT22;63674;48.048;8.306;2022-12-28T03:11:27;-0.10;99.90
75091;DHT22;63674;48.048;8.306;2022-12-28T03:14:03;-0.10;99.90
75091;DHT22;63674;48.048;8.306;2022-12-28T03:16:36;0.00;99.90
75091;DHT22;63674;48.048;8.306;2022-12-28T03:19:30;0.00;99.90
75091;DHT22;63674;48.048;8.306;2022-12-28T03:22:19;0.00;99.90
75091;DHT22;63674;48.048;8.306;2022-12-28T03:25:11;0.00;99.90
75091;DHT22;63674;48.048;8.306;2022-12-28T03:28:00;0.10;99.90
75091;DHT22;63674;48.048;8.306;2022-12-28T03:30:51;0.10;99.90
75091;DHT22;63674;48.048;8.306;2022-12-28T03:33:35;0.10;99.90
75091;DHT22;63674;48.048;8.306;2022-12-28T03:36:10;0.10;99.90
75091;DHT22;63674;48.048;8.306;2022-12-28T03:38:47;0.00;99.90
75091;DHT22;63674;48.048;8.306;2022-12-28T03:41:22;0.10;99.90
75091;DHT22;63674;48.048;8.306;2022-12-28T03:44:02;0.10;99.90
75091;DHT22;63674;48.048;8.306;2022-12-28T03:46:37;0.10;99.90
75091;DHT22;63674;48.048;8.306;2022-12-28T03:49:11;0.20;99.90
75091;DHT22;63674;48.048;8.306;2022-12-28T03:51:42;0.30;99.90
75091;DHT22;63674;48.048;8.306;2022-12-28T03:56:46;0.30;99.90
75091;DHT22;63674;48.048;8.306;2022-12-28T03:59:16;0.30;99.90
75091;DHT22;63674;48.048;8.306;2022-12-28T04:01:45;0.40;99.90
75091;DHT22;63674;48.048;8.306;2022-12-28T04:04:14;0.40;99.90
75091;DHT22;63674;48.048;8.306;2022-12-28T04:06:44;0.40;99.90
75091;DHT22;63674;48.048;8.306;2022-12-28T04:09:12;0.40;99.90
75091;DHT22;63674;48.048;8.306;2022-12-28T04:11:41;0.50;99.90
75091;DHT22;63674;48.048;8.306;2022-12-28T04:14:09;0.50;99.90
75091;DHT22;63674;48.048;8.306;2022-12-28T04:16:38;0.60;99.90
75091;DHT22;63674;48.048;8.306;2022-12-28T04:19:07;0.50;99.90
75091;DHT22;63674;48.048;8.306;2022-12-28T04:21:36;0.60;99.90
75091;DHT22;63674;48.048;8.306;2022-12-28T04:24:06;0.80;99.90
75091;DHT22;63674;48.048;8.306;2022-12-28T04:26:34;0.80;99.90
75091;DHT22;63674;48.048;8.306;2022-12-28T04:29:03;0.90;99.90
75091;DHT22;63674;48.048;8.306;2022-12-28T04:31:32;0.90;99.90
75091;DHT22;63674;48.048;8.306;2022-12-28T04:34:00;1.20;99.90
75091;DHT22;63674;48.048;8.306;2022-12-28T04:36:29;1.30;99.90
75091;DHT22;63674;48.048;8.306;2022-12-28T04:38:58;1.30;99.90
75091;DHT22;63674;48.048;8.306;2022-12-28T04:41:28;1.10;99.90
75091;DHT22;63674;48.048;8.306;2022-12-28T04:43:57;1.20;99.90
75091;DHT22;63674;48.048;8.306;2022-12-28T04:46:25;1.40;99.90
75091;DHT22;63674;48.048;8.306;2022-12-28T04:48:54;1.50;99.90
75091;DHT22;63674;48.048;8.306;2022-12-28T04:51:24;1.50;99.90
75091;DHT22;63674;48.048;8.306;2022-12-28T04:53:55;1.60;99.90
75091;DHT22;63674;48.048;8.306;2022-12-28T04:56:25;1.60;99.90
75091;DHT22;63674;48.048;8.306;2022-12-28T04:58:57;1.90;99.90
75091;DHT22;63674;48.048;8.306;2022-12-28T05:01:26;1.90;99.90
75091;DHT22;63674;48.048;8.306;2022-12-28T05:03:56;1.90;99.90
75091;DHT22;63674;48.048;8.306;2022-12-28T05:06:26;2.00;99.90
75091;DHT22;63674;48.048;8.306;2022-12-28T05:08:55;1.90;99.90
75091;DHT22;63674;48.048;8.306;2022-12-28T05:11:25;1.80;99.90
75091;DHT22;63674;48.048;8.306;2022-12-28T05:13:56;1.80;99.90
75091;DHT22;63674;48.048;8.306;2022-12-28T05:16:27;1.90;99.90
75091;DHT22;63674;48.048;8.306;2022-12-28T05:18:57;2.00;99.90
75091;DHT22;63674;48.048;8.306;2022-12-28T05:21:26;2.10;99.90
75091;DHT22;63674;48.048;8.306;2022-12-28T05:23:55;2.10;99.90
75091;DHT22;63674;48.048;8.306;2022-12-28T05:26:26;2.10;99.90
75091;DHT22;63674;48.048;8.306;2022-12-28T05:28:57;2.20;99.90
75091;DHT22;63674;48.048;8.306;2022-12-28T05:31:26;2.40;99.90
75091;DHT22;63674;48.048;8.306;2022-12-28T05:33:55;2.30;99.90
75091;DHT22;63674;48.048;8.306;2022-12-28T05:36:25;2.60;99.90
75091;DHT22;63674;48.048;8.306;2022-12-28T05:38:55;2.70;99.90
75091;DHT22;63674;48.048;8.306;2022-12-28T05:41:25;2.70;99.90
75091;DHT22;63674;48.048;8.306;2022-12-28T05:43:57;2.80;99.90
75091;DHT22;63674;48.048;8.306;2022-12-28T05:46:28;2.80;99.90
75091;DHT22;63674;48.048;8.306;2022-12-28T05:48:57;2.90;99.90
75091;DHT22;63674;48.048;8.306;2022-12-28T05:51:28;3.00;99.90
75091;DHT22;63674;48.048;8.306;2022-12-28T05:53:58;3.00;99.90
75091;DHT22;63674;48.048;8.306;2022-12-28T05:56:30;3.10;99.90
75091;DHT22;63674;48.048;8.306;2022-12-28T05:59:02;3.00;99.90
75091;DHT22;63674;48.048;8.306;2022-12-28T06:01:34;3.00;99.90
75091;DHT22;63674;48.048;8.306;2022-12-28T06:04:06;3.00;99.90
75091;DHT22;63674;48.048;8.306;2022-12-28T06:06:36;3.10;99.90
75091;DHT22;63674;48.048;8.306;2022-12-28T06:09:04;3.10;99.90
75091;DHT22;63674;48.048;8.306;2022-12-28T06:11:33;3.20;99.90
75091;DHT22;63674;48.048;8.306;2022-12-28T06:16:33;3.10;99.90
75091;DHT22;63674;48.048;8.306;2022-12-28T06:19:04;3.10;99.90
75091;DHT22;63674;48.048;8.306;2022-12-28T06:21:36;3.20;99.90
75091;DHT22;63674;48.048;8.306;2022-12-28T06:24:06;3.20;99.90
75091;DHT22;63674;48.048;8.306;2022-12-28T06:26:37;3.30;99.90
75091;DHT22;63674;48.048;8.306;2022-12-28T06:29:08;3.30;99.90
75091;DHT22;63674;48.048;8.306;2022-12-28T06:31:38;3.30;99.90
75091;DHT22;63674;48.048;8.306;2022-12-28T06:34:08;3.20;99.90
75091;DHT22;63674;48.048;8.306;2022-12-28T06:36:39;3.20;99.90
75091;DHT22;63674;48.048;8.306;2022-12-28T06:39:10;3.20;99.90
75091;DHT22;63674;48.048;8.306;2022-12-28T06:41:40;3.30;99.90
75091;DHT22;63674;48.048;8.306;2022-12-28T06:44:11;3.20;99.90
75091;DHT22;63674;48.048;8.306;2022-12-28T06:46:41;3.20;99.90
75091;DHT22;63674;48.048;8.306;2022-12-28T06:49:09;3.40;99.90
75091;DHT22;63674;48.048;8.306;2022-12-28T06:51:38;3.40;99.90
75091;DHT22;63674;48.048;8.306;2022-12-28T06:54:09;3.40;99.90
75091;DHT22;63674;48.048;8.306;2022-12-28T06:56:38;3.40;99.90
75091;DHT22;63674;48.048;8.306;2022-12-28T06:59:07;3.40;99.90
75091;DHT22;63674;48.048;8.306;2022-12-28T07:01:38;3.30;99.90
75091;DHT22;63674;48.048;8.306;2022-12-28T07:04:10;3.20;99.90
75091;DHT22;63674;48.048;8.306;2022-12-28T07:06:41;3.30;99.90
75091;DHT22;63674;48.048;8.306;2022-12-28T07:09:12;3.30;99.90
75091;DHT22;63674;48.048;8.306;2022-12-28T07:11:42;3.10;99.90
75091;DHT22;63674;48.048;8.306;2022-12-28T07:14:10;3.10;99.90
75091;DHT22;63674;48.048;8.306;2022-12-28T07:16:40;3.10;99.90
75091;DHT22;63674;48.048;8.306;2022-12-28T07:19:09;3.20;99.90
75091;DHT22;63674;48.048;8.306;2022-12-28T07:21:38;3.20;99.90
75091;DHT22;63674;48.048;8.306;2022-12-28T07:24:08;3.10;99.90
75091;DHT22;63674;48.048;8.306;2022-12-28T07:26:37;3.10;99.90
75091;DHT22;63674;48.048;8.306;2022-12-28T07:29:06;3.10;99.90
75091;DHT22;63674;48.048;8.306;2022-12-28T07:31:37;3.10;99.90
75091;DHT22;63674;48.048;8.306;2022-12-28T07:34:13;3.10;99.90
75091;DHT22;63674;48.048;8.306;2022-12-28T07:36:42;3.00;99.90
75091;DHT22;63674;48.048;8.306;2022-12-28T07:39:11;3.10;99.90
75091;DHT22;63674;48.048;8.306;2022-12-28T07:41:40;3.10;99.90
75091;DHT22;63674;48.048;8.306;2022-12-28T07:44:08;3.10;99.90
75091;DHT22;63674;48.048;8.306;2022-12-28T07:46:37;3.10;99.90
75091;DHT22;63674;48.048;8.306;2022-12-28T07:49:06;3.20;99.90
75091;DHT22;63674;48.048;8.306;2022-12-28T07:51:37;3.20;99.90
75091;DHT22;63674;48.048;8.306;2022-12-28T07:54:06;3.10;99.90
75091;DHT22;63674;48.048;8.306;2022-12-28T07:56:35;3.20;99.90
75091;DHT22;63674;48.048;8.306;2022-12-28T07:59:03;3.30;99.90
75091;DHT22;63674;48.048;8.306;2022-12-28T08:01:34;3.30;99.90
75091;DHT22;63674;48.048;8.306;2022-12-28T08:04:06;3.30;99.90
75091;DHT22;63674;48.048;8.306;2022-12-28T08:06:39;3.20;99.90
75091;DHT22;63674;48.048;8.306;2022-12-28T08:09:11;3.30;99.90
75091;DHT22;63674;48.048;8.306;2022-12-28T08:11:41;3.30;99.90
75091;DHT22;63674;48.048;8.306;2022-12-28T08:14:11;3.40;99.90
75091;DHT22;63674;48.048;8.306;2022-12-28T08:16:41;3.40;99.90
75091;DHT22;63674;48.048;8.306;2022-12-28T08:19:11;3.50;99.90
75091;DHT22;63674;48.048;8.306;2022-12-28T08:21:42;3.40;99.90
75091;DHT22;63674;48.048;8.306;2022-12-28T08:24:17;3.50;99.90
75091;DHT22;63674;48.048;8.306;2022-12-28T08:26:47;3.60;99.90
75091;DHT22;63674;48.048;8.306;2022-12-28T08:29:19;3.80;99.90
75091;DHT22;63674;48.048;8.306;2022-12-28T08:31:48;3.90;99.90
75091;DHT22;63674;48.048;8.306;2022-12-28T08:34:19;3.90;99.90
75091;DHT22;63674;48.048;8.306;2022-12-28T08:36:54;3.90;99.90
75091;DHT22;63674;48.048;8.306;2022-12-28T08:39:23;3.90;99.90
75091;DHT22;63674;48.048;8.306;2022-12-28T08:41:51;3.90;99.90
75091;DHT22;63674;48.048;8.306;2022-12-28T08:44:20;3.90;99.90
75091;DHT22;63674;48.048;8.306;2022-12-28T08:46:49;3.90;99.90
75091;DHT22;63674;48.048;8.306;2022-12-28T08:49:18;3.90;99.90
75091;DHT22;63674;48.048;8.306;2022-12-28T08:51:46;4.00;99.90
75091;DHT22;63674;48.048;8.306;2022-12-28T08:54:16;4.00;99.90
75091;DHT22;63674;48.048;8.306;2022-12-28T08:56:45;4.00;99.90
75091;DHT22;63674;48.048;8.306;2022-12-28T08:59:16;4.00;99.90
75091;DHT22;63674;48.048;8.306;2022-12-28T09:01:46;4.00;99.90
75091;DHT22;63674;48.048;8.306;2022-12-28T09:04:16;4.00;99.90
75091;DHT22;63674;48.048;8.306;2022-12-28T09:06:47;4.10;99.90
75091;DHT22;63674;48.048;8.306;2022-12-28T09:09:18;4.20;99.90
75091;DHT22;63674;48.048;8.306;2022-12-28T09:11:48;4.20;99.90
75091;DHT22;63674;48.048;8.306;2022-12-28T09:14:17;4.20;99.90
75091;DHT22;63674;48.048;8.306;2022-12-28T09:16:51;4.20;99.90
75091;DHT22;63674;48.048;8.306;2022-12-28T09:19:20;4.30;99.90
75091;DHT22;63674;48.048;8.306;2022-12-28T09:21:49;4.30;99.90
75091;DHT22;63674;48.048;8.306;2022-12-28T09:24:21;4.30;99.90
75091;DHT22;63674;48.048;8.306;2022-12-28T09:26:49;4.30;99.90
75091;DHT22;63674;48.048;8.306;2022-12-28T09:29:20;4.30;99.90
75091;DHT22;63674;48.048;8.306;2022-12-28T09:31:49;4.40;99.90
75091;DHT22;63674;48.048;8.306;2022-12-28T09:34:17;4.30;99.90
75091;DHT22;63674;48.048;8.306;2022-12-28T09:37:02;4.40;99.90
75091;DHT22;63674;48.048;8.306;2022-12-28T09:39:32;4.40;99.90
75091;DHT22;63674;48.048;8.306;2022-12-28T09:42:03;4.40;99.90
75091;DHT22;63674;48.048;8.306;2022-12-28T09:44:41;4.40;99.90
75091;DHT22;63674;48.048;8.306;2022-12-28T09:47:19;4.40;99.90
75091;DHT22;63674;48.048;8.306;2022-12-28T09:50:23;4.50;99.90
75091;DHT22;63674;48.048;8.306;2022-12-28T09:53:10;4.60;99.90
75091;DHT22;63674;48.048;8.306;2022-12-28T09:55:54;4.60;99.90
75091;DHT22;63674;48.048;8.306;2022-12-28T09:58:27;4.60;99.90
75091;DHT22;63674;48.048;8.306;2022-12-28T10:00:57;4.60;99.90
75091;DHT22;63674;48.048;8.306;2022-12-28T10:03:33;4.70;99.90
75091;DHT22;63674;48.048;8.306;2022-12-28T10:06:10;4.70;99.90
75091;DHT22;63674;48.048;8.306;2022-12-28T10:08:42;4.70;99.90
75091;DHT22;63674;48.048;8.306;2022-12-28T10:11:17;4.80;99.90
75091;DHT22;63674;48.048;8.306;2022-12-28T10:13:48;4.90;99.90
75091;DHT22;63674;48.048;8.306;2022-12-28T10:16:24;4.90;99.90
75091;DHT22;63674;48.048;8.306;2022-12-28T10:18:54;4.90;99.90
75091;DHT22;63674;48.048;8.306;2022-12-28T10:21:26;4.80;99.90
75091;DHT22;63674;48.048;8.306;2022-12-28T10:24:00;4.90;99.90
75091;DHT22;63674;48.048;8.306;2022-12-28T10:26:55;5.00;99.90
75091;DHT22;63674;48.048;8.306;2022-12-28T10:29:26;5.10;99.90
75091;DHT22;63674;48.048;8.306;2022-12-28T10:31:59;5.20;99.90
75091;DHT22;63674;48.048;8.306;2022-12-28T10:34:30;5.10;99.90
75091;DHT22;63674;48.048;8.306;2022-12-28T10:37:06;5.20;99.90
75091;DHT22;63674;48.048;8.306;2022-12-28T10:39:47;5.20;99.90
75091;DHT22;63674;48.048;8.306;2022-12-28T10:42:24;5.30;99.90
75091;DHT22;63674;48.048;8.306;2022-12-28T10:44:59;5.30;99.90
75091;DHT22;63674;48.048;8.306;2022-12-28T10:47:33;5.30;99.90
75091;DHT22;63674;48.048;8.306;2022-12-28T10:50:04;5.30;99.90
75091;DHT22;63674;48.048;8.306;2022-12-28T10:52:56;5.40;99.90
75091;DHT22;63674;48.048;8.306;2022-12-28T10:55:27;5.50;99.90
75091;DHT22;63674;48.048;8.306;2022-12-28T10:58:14;5.60;99.90
75091;DHT22;63674;48.048;8.306;2022-12-28T11:00:58;5.60;99.90
75091;DHT22;63674;48.048;8.306;2022-12-28T11:03:30;5.70;99.90
75091;DHT22;63674;48.048;8.306;2022-12-28T11:06:13;5.70;99.90
75091;DHT22;63674;48.048;8.306;2022-12-28T11:09:13;5.80;99.90
75091;DHT22;63674;48.048;8.306;2022-12-28T11:11:45;5.80;99.90
75091;DHT22;63674;48.048;8.306;2022-12-28T11:14:24;5.90;99.90
75091;DHT22;63674;48.048;8.306;2022-12-28T11:17:08;5.90;99.90
75091;DHT22;63674;48.048;8.306;2022-12-28T11:19:42;5.90;99.90
75091;DHT22;63674;48.048;8.306;2022-12-28T11:22:11;5.90;99.90
75091;DHT22;63674;48.048;8.306;2022-12-28T11:24:42;5.90;99.90
75091;DHT22;63674;48.048;8.306;2022-12-28T11:27:12;5.90;99.90
75091;DHT22;63674;48.048;8.306;2022-12-28T11:29:48;5.90;99.90
75091;DHT22;63674;48.048;8.306;2022-12-28T11:32:20;5.90;99.90
75091;DHT22;63674;48.048;8.306;2022-12-28T11:34:52;5.80;99.90
75091;DHT22;63674;48.048;8.306;2022-12-28T11:37:21;5.80;99.90
75091;DHT22;63674;48.048;8.306;2022-12-28T11:39:51;5.80;99.90
75091;DHT22;63674;48.048;8.306;2022-12-28T11:42:52;5.80;99.90
75091;DHT22;63674;48.048;8.306;2022-12-28T11:45:48;5.80;99.90
75091;DHT22;63674;48.048;8.306;2022-12-28T11:48:37;5.80;99.90
75091;DHT22;63674;48.048;8.306;2022-12-28T11:51:14;5.80;99.90
75091;DHT22;63674;48.048;8.306;2022-12-28T11:53:52;6.00;99.90
75091;DHT22;63674;48.048;8.306;2022-12-28T11:56:25;6.00;99.90
75091;DHT22;63674;48.048;8.306;2022-12-28T11:59:05;6.00;99.90
75091;DHT22;63674;48.048;8.306;2022-12-28T12:01:51;5.90;99.90
75091;DHT22;63674;48.048;8.306;2022-12-28T12:07:16;6.00;99.90
75091;DHT22;63674;48.048;8.306;2022-12-28T12:13:42;6.00;99.90
75091;DHT22;63674;48.048;8.306;2022-12-28T12:16:25;6.10;99.90
75091;DHT22;63674;48.048;8.306;2022-12-28T12:18:57;6.20;99.90
75091;DHT22;63674;48.048;8.306;2022-12-28T12:21:32;6.20;99.90
75091;DHT22;63674;48.048;8.306;2022-12-28T12:24:15;6.20;99.90
75091;DHT22;63674;48.048;8.306;2022-12-28T12:26:49;6.20;99.90
75091;DHT22;63674;48.048;8.306;2022-12-28T12:29:21;6.20;99.90
75091;DHT22;63674;48.048;8.306;2022-12-28T12:31:59;6.10;99.90
75091;DHT22;63674;48.048;8.306;2022-12-28T12:34:39;6.10;99.90
75091;DHT22;63674;48.048;8.306;2022-12-28T12:37:30;6.20;99.90
75091;DHT22;63674;48.048;8.306;2022-12-28T12:40:18;6.20;99.90
75091;DHT22;63674;48.048;8.306;2022-12-28T12:43:12;6.20;99.90
75091;DHT22;63674;48.048;8.306;2022-12-28T12:45:55;6.20;99.90
75091;DHT22;63674;48.048;8.306;2022-12-28T12:49:14;6.30;99.90
75091;DHT22;63674;48.048;8.306;2022-12-28T12:51:57;6.30;99.90
75091;DHT22;63674;48.048;8.306;2022-12-28T12:54:42;6.30;99.90
75091;DHT22;63674;48.048;8.306;2022-12-28T12:57:19;6.40;99.90
75091;DHT22;63674;48.048;8.306;2022-12-28T13:00:00;6.40;99.90
75091;DHT22;63674;48.048;8.306;2022-12-28T13:02:53;6.40;99.90
75091;DHT22;63674;48.048;8.306;2022-12-28T13:05:32;6.40;99.90
75091;DHT22;63674;48.048;8.306;2022-12-28T13:08:03;6.50;99.90
75091;DHT22;63674;48.048;8.306;2022-12-28T13:10:34;6.70;99.90
75091;DHT22;63674;48.048;8.306;2022-12-28T13:13:04;6.90;99.90
75091;DHT22;63674;48.048;8.306;2022-12-28T13:15:33;6.90;99.90
75091;DHT22;63674;48.048;8.306;2022-12-28T13:18:03;6.90;99.90
75091;DHT22;63674;48.048;8.306;2022-12-28T13:20:54;6.90;99.90
75091;DHT22;63674;48.048;8.306;2022-12-28T13:23:26;6.90;99.90
75091;DHT22;63674;48.048;8.306;2022-12-28T13:25:58;6.90;99.90
75091;DHT22;63674;48.048;8.306;2022-12-28T13:28:29;6.90;99.90
75091;DHT22;63674;48.048;8.306;2022-12-28T13:31:08;6.80;99.90
75091;DHT22;63674;48.048;8.306;2022-12-28T13:33:46;6.80;99.90
75091;DHT22;63674;48.048;8.306;2022-12-28T13:36:20;6.80;99.90
75091;DHT22;63674;48.048;8.306;2022-12-28T13:39:07;6.80;99.90
75091;DHT22;63674;48.048;8.306;2022-12-28T13:41:46;6.90;99.90
75091;DHT22;63674;48.048;8.306;2022-12-28T13:44:36;6.90;99.90
75091;DHT22;63674;48.048;8.306;2022-12-28T13:47:11;6.90;99.90
75091;DHT22;63674;48.048;8.306;2022-12-28T13:49:46;6.90;99.90
75091;DHT22;63674;48.048;8.306;2022-12-28T13:52:19;6.90;99.90
75091;DHT22;63674;48.048;8.306;2022-12-28T13:54:54;6.90;99.90
75091;DHT22;63674;48.048;8.306;2022-12-28T13:57:28;6.90;99.90
75091;DHT22;63674;48.048;8.306;2022-12-28T14:00:18;6.90;97.40
75091;DHT22;63674;48.048;8.306;2022-12-28T14:02:50;6.90;99.90
75091;DHT22;63674;48.048;8.306;2022-12-28T14:05:23;7.00;99.90
75091;DHT22;63674;48.048;8.306;2022-12-28T14:07:54;7.00;99.90
75091;DHT22;63674;48.048;8.306;2022-12-28T14:10:26;7.00;99.90
75091;DHT22;63674;48.048;8.306;2022-12-28T14:12:55;7.20;98.60
75091;DHT22;63674;48.048;8.306;2022-12-28T14:15:24;7.30;94.90
75091;DHT22;63674;48.048;8.306;2022-12-28T14:17:53;7.20;95.50
75091;DHT22;63674;48.048;8.306;2022-12-28T14:20:22;7.20;96.80
75091;DHT22;63674;48.048;8.306;2022-12-28T14:22:50;7.30;87.20
75091;DHT22;63674;48.048;8.306;2022-12-28T14:25:20;7.30;80.30
75091;DHT22;63674;48.048;8.306;2022-12-28T14:27:56;7.30;80.10
75091;DHT22;63674;48.048;8.306;2022-12-28T14:30:30;7.30;88.30
75091;DHT22;63674;48.048;8.306;2022-12-28T14:33:11;7.40;78.00
75091;DHT22;63674;48.048;8.306;2022-12-28T14:35:49;7.30;88.20
75091;DHT22;63674;48.048;8.306;2022-12-28T14:38:21;7.30;76.70
75091;DHT22;63674;48.048;8.306;2022-12-28T14:40:52;7.30;81.10
75091;DHT22;63674;48.048;8.306;2022-12-28T14:43:24;7.30;73.80
75091;DHT22;63674;48.048;8.306;2022-12-28T14:45:54;7.30;77.70
75091;DHT22;63674;48.048;8.306;2022-12-28T14:48:35;7.20;78.30
75091;DHT22;63674;48.048;8.306;2022-12-28T14:51:22;7.10;89.30
75091;DHT22;63674;48.048;8.306;2022-12-28T14:54:17;7.00;81.90
75091;DHT22;63674;48.048;8.306;2022-12-28T14:56:51;7.00;80.50
75091;DHT22;63674;48.048;8.306;2022-12-28T14:59:26;7.10;81.50
75091;DHT22;63674;48.048;8.306;2022-12-28T15:01:56;7.00;82.40
75091;DHT22;63674;48.048;8.306;2022-12-28T15:04:27;6.90;88.40
75091;DHT22;63674;48.048;8.306;2022-12-28T15:07:02;6.90;90.10
75091;DHT22;63674;48.048;8.306;2022-12-28T15:09:32;6.90;92.80
75091;DHT22;63674;48.048;8.306;2022-12-28T15:12:12;6.80;94.60
75091;DHT22;63674;48.048;8.306;2022-12-28T15:14:44;6.80;90.70
75091;DHT22;63674;48.048;8.306;2022-12-28T15:17:14;6.90;91.80
75091;DHT22;63674;48.048;8.306;2022-12-28T15:19:43;6.80;92.70
75091;DHT22;63674;48.048;8.306;2022-12-28T15:22:12;6.80;94.60
75091;DHT22;63674;48.048;8.306;2022-12-28T15:24:41;6.90;92.30
75091;DHT22;63674;48.048;8.306;2022-12-28T15:27:11;6.80;93.40
75091;DHT22;63674;48.048;8.306;2022-12-28T15:29:40;6.90;94.40
75091;DHT22;63674;48.048;8.306;2022-12-28T15:32:29;6.90;94.90
75091;DHT22;63674;48.048;8.306;2022-12-28T15:34:58;6.80;98.20
75091;DHT22;63674;48.048;8.306;2022-12-28T15:37:26;6.70;99.90
75091;DHT22;63674;48.048;8.306;2022-12-28T15:39:55;6.50;99.90
75091;DHT22;63674;48.048;8.306;2022-12-28T15:42:23;6.30;99.90
75091;DHT22;63674;48.048;8.306;2022-12-28T15:44:52;6.00;99.90
75091;DHT22;63674;48.048;8.306;2022-12-28T15:47:21;5.80;99.90
75091;DHT22;63674;48.048;8.306;2022-12-28T15:49:51;5.80;99.90
75091;DHT22;63674;48.048;8.306;2022-12-28T15:52:20;5.90;99.90
75091;DHT22;63674;48.048;8.306;2022-12-28T15:54:48;5.90;99.90
75091;DHT22;63674;48.048;8.306;2022-12-28T15:57:17;5.60;99.90
75091;DHT22;63674;48.048;8.306;2022-12-28T15:59:45;5.50;99.90
75091;DHT22;63674;48.048;8.306;2022-12-28T16:02:14;5.40;99.90
75091;DHT22;63674;48.048;8.306;2022-12-28T16:04:43;5.10;99.90
75091;DHT22;63674;48.048;8.306;2022-12-28T16:07:14;5.00;99.90
75091;DHT22;63674;48.048;8.306;2022-12-28T16:09:42;5.00;99.90
75091;DHT22;63674;48.048;8.306;2022-12-28T16:12:11;4.90;99.90
75091;DHT22;63674;48.048;8.306;2022-12-28T16:14:44;4.70;99.90
75091;DHT22;63674;48.048;8.306;2022-12-28T16:17:14;4.70;99.90
75091;DHT22;63674;48.048;8.306;2022-12-28T16:19:42;4.70;99.90
75091;DHT22;63674;48.048;8.306;2022-12-28T16:22:12;4.70;99.90
75091;DHT22;63674;48.048;8.306;2022-12-28T16:24:41;4.50;99.90
75091;DHT22;63674;48.048;8.306;2022-12-28T16:27:09;4.40;99.90
75091;DHT22;63674;48.048;8.306;2022-12-28T16:29:38;4.30;99.90
75091;DHT22;63674;48.048;8.306;2022-12-28T16:32:06;4.30;99.90
75091;DHT22;63674;48.048;8.306;2022-12-28T16:34:35;4.20;99.90
75091;DHT22;63674;48.048;8.306;2022-12-28T16:37:03;4.20;99.90
75091;DHT22;63674;48.048;8.306;2022-12-28T16:39:33;4.20;99.90